Time;durP1;ratioP1;P1;durP2;ratioP2;P2;SDS_P1;SDS_P2;PMS_P1;PMS_P2;Temp;Humidity;BMP_temperature;BMP_pressure;BME280_temperature;BME280_humidity;BME280_pressure;Samples;Min_cycle;Max_cycle;Signal;HPM_P1;HPM_P2
2021/05/13 00:00:59;;;;;;;7.17;6.50;;;10.60;99.90;;;;;;6229865;22;20594;-88
2021/05/13 00:03:24;;;;;;;6.83;6.13;;;10.60;99.90;;;;;;6256210;22;20485;-89
2021/05/13 00:05:50;;;;;;;7.37;6.67;;;10.50;99.90;;;;;;6255087;22;20382;-88
2021/05/13 00:08:16;;;;;;;7.13;6.33;;;10.40;99.90;;;;;;6252436;22;20975;-89
2021/05/13 00:10:42;;;;;;;8.37;5.73;;;10.50;99.90;;;;;;6255290;22;20173;-88
2021/05/13 00:13:09;;;;;;;6.50;5.90;;;10.50;99.90;;;;;;6255579;22;20223;-88
2021/05/13 00:15:38;;;;;;;8.77;6.50;;;10.50;99.90;;;;;;6253111;22;20174;-89
2021/05/13 00:18:04;;;;;;;6.97;6.33;;;10.40;99.90;;;;;;6255747;22;20388;-88
2021/05/13 00:20:35;;;;;;;6.80;6.30;;;10.30;99.90;;;;;;6256061;22;20515;-88
2021/05/13 00:23:01;;;;;;;6.27;5.77;;;10.30;99.90;;;;;;6255669;22;20820;-89
2021/05/13 00:25:31;;;;;;;6.90;6.30;;;10.30;99.90;;;;;;6256082;22;20396;-90
2021/05/13 00:27:58;;;;;;;6.80;6.20;;;10.40;99.90;;;;;;6257501;22;20423;-89
2021/05/13 00:30:24;;;;;;;8.30;7.40;;;10.30;99.90;;;;;;6257374;22;20381;-89
2021/05/13 00:32:50;;;;;;;8.90;8.00;;;10.30;99.90;;;;;;6254991;22;20397;-89
2021/05/13 00:35:17;;;;;;;7.00;6.50;;;10.20;99.90;;;;;;6256346;22;20743;-89
2021/05/13 00:37:44;;;;;;;7.27;6.63;;;10.20;99.90;;;;;;6254275;22;20409;-90
2021/05/13 00:40:13;;;;;;;8.93;6.53;;;10.10;99.90;;;;;;6256198;22;20509;-90
2021/05/13 00:42:42;;;;;;;8.00;7.27;;;10.10;99.90;;;;;;6255803;22;20492;-90
2021/05/13 00:45:10;;;;;;;7.00;6.30;;;10.10;99.90;;;;;;6255342;22;20515;-91
2021/05/13 00:47:43;;;;;;;6.30;5.80;;;10.10;99.90;;;;;;6257606;22;20417;-91
2021/05/13 00:50:09;;;;;;;7.63;6.83;;;10.20;99.90;;;;;;6255285;22;20424;-89
2021/05/13 00:52:35;;;;;;;7.30;6.70;;;10.20;99.90;;;;;;6254864;22;20909;-90
2021/05/13 00:55:02;;;;;;;10.13;7.20;;;10.20;99.90;;;;;;6257230;22;20401;-90
2021/05/13 00:57:28;;;;;;;7.80;6.97;;;10.10;99.90;;;;;;6256105;22;20166;-89
2021/05/13 00:59:59;;;;;;;6.87;6.27;;;10.10;99.90;;;;;;6256323;22;20985;-89
2021/05/13 01:02:25;;;;;;;7.30;6.50;;;10.20;99.90;;;;;;6254974;22;20180;-89
2021/05/13 01:04:50;;;;;;;6.93;6.27;;;10.10;99.90;;;;;;6254918;22;20790;-90
2021/05/13 01:07:16;;;;;;;7.63;6.23;;;10.10;99.90;;;;;;6253593;22;20166;-91
2021/05/13 01:09:42;;;;;;;6.90;6.20;;;10.10;99.90;;;;;;6256010;22;20190;-90
2021/05/13 01:12:17;;;;;;;6.80;6.30;;;10.20;99.90;;;;;;6256140;22;20189;-92
2021/05/13 01:14:55;;;;;;;8.60;6.50;;;10.10;99.90;;;;;;6254741;22;20435;-89
2021/05/13 01:17:38;;;;;;;7.43;6.83;;;10.10;99.90;;;;;;6254403;22;20408;-89
2021/05/13 01:20:06;;;;;;;8.53;6.60;;;10.00;99.90;;;;;;6256713;22;20429;-89
2021/05/13 01:22:31;;;;;;;9.13;6.90;;;9.90;99.90;;;;;;6254407;22;20451;-91
2021/05/13 01:24:58;;;;;;;7.17;6.53;;;9.80;99.90;;;;;;6255435;22;20586;-89
2021/05/13 01:27:24;;;;;;;12.70;7.53;;;9.80;99.90;;;;;;6256333;22;20166;-89
2021/05/13 01:29:50;;;;;;;8.43;6.30;;;9.90;99.90;;;;;;6253896;22;20724;-90
2021/05/13 01:32:18;;;;;;;6.60;6.00;;;9.90;99.90;;;;;;6255364;22;20185;-89
2021/05/13 01:34:45;;;;;;;9.03;6.93;;;9.90;99.90;;;;;;6253060;22;20401;-89
2021/05/13 01:37:10;;;;;;;6.90;6.27;;;9.90;99.90;;;;;;6256370;22;20759;-89
2021/05/13 01:39:36;;;;;;;7.37;5.60;;;9.90;99.90;;;;;;6256889;22;20404;-89
2021/05/13 01:42:03;;;;;;;7.90;6.50;;;9.90;99.90;;;;;;6255139;22;20648;-90
2021/05/13 01:44:29;;;;;;;6.90;6.30;;;9.90;99.90;;;;;;6253659;22;20191;-91
2021/05/13 01:47:03;;;;;;;6.97;6.10;;;9.90;99.90;;;;;;6257807;22;20566;-90
2021/05/13 01:49:32;;;;;;;7.00;6.40;;;10.00;99.90;;;;;;6254640;22;20919;-91
2021/05/13 01:51:57;;;;;;;7.50;6.90;;;10.00;99.90;;;;;;6258915;22;20597;-90
2021/05/13 01:54:23;;;;;;;7.13;6.53;;;10.00;99.90;;;;;;6230966;22;20425;-90
2021/05/13 01:56:49;;;;;;;10.90;8.67;;;9.90;99.90;;;;;;6257789;22;20501;-90
2021/05/13 01:59:36;;;;;;;8.00;6.40;;;9.90;99.90;;;;;;6256251;22;20197;-91
2021/05/13 02:02:02;;;;;;;8.90;6.80;;;9.90;99.90;;;;;;6255960;22;20174;-90
2021/05/13 02:04:29;;;;;;;9.13;7.13;;;10.00;99.90;;;;;;6259411;22;20392;-91
2021/05/13 02:06:58;;;;;;;7.87;7.07;;;10.00;99.90;;;;;;6256545;22;20403;-91
2021/05/13 02:09:24;;;;;;;7.00;6.40;;;9.90;99.90;;;;;;6256857;22;20419;-91
2021/05/13 02:11:49;;;;;;;6.50;5.80;;;9.90;99.90;;;;;;6254002;22;20793;-91
2021/05/13 02:14:16;;;;;;;6.40;5.70;;;9.90;99.90;;;;;;6256611;22;20614;-90
2021/05/13 02:16:41;;;;;;;6.80;5.73;;;9.80;99.90;;;;;;6256819;22;20162;-88
2021/05/13 02:19:07;;;;;;;7.43;5.93;;;9.80;99.90;;;;;;6256812;22;20413;-89
2021/05/13 02:21:33;;;;;;;6.53;5.93;;;9.80;99.90;;;;;;6255414;22;20852;-92
2021/05/13 02:23:58;;;;;;;7.13;6.00;;;9.70;99.90;;;;;;6256559;22;20162;-90
2021/05/13 02:26:24;;;;;;;6.70;5.40;;;9.80;99.90;;;;;;6257058;22;20392;-91
2021/05/13 02:28:50;;;;;;;6.90;5.90;;;9.90;99.90;;;;;;6256398;22;20170;-89
2021/05/13 02:31:15;;;;;;;6.20;5.70;;;9.90;99.90;;;;;;6256651;22;20166;-89
2021/05/13 02:33:41;;;;;;;6.53;5.93;;;9.90;99.90;;;;;;6256136;22;20584;-89
2021/05/13 02:36:08;;;;;;;7.50;6.33;;;9.90;99.90;;;;;;6257020;22;20510;-91
2021/05/13 02:38:35;;;;;;;6.97;6.37;;;9.90;99.90;;;;;;6257684;22;20389;-88
2021/05/13 02:41:01;;;;;;;7.03;6.40;;;9.90;99.90;;;;;;6257005;22;20436;-87
2021/05/13 02:43:27;;;;;;;7.07;6.37;;;9.90;99.90;;;;;;6257934;22;20470;-87
2021/05/13 02:45:53;;;;;;;8.23;7.37;;;9.90;99.90;;;;;;6259565;22;21214;-88
2021/05/13 02:48:18;;;;;;;7.83;7.03;;;9.90;99.90;;;;;;6255323;22;20751;-89
2021/05/13 02:50:44;;;;;;;7.23;6.37;;;9.80;99.90;;;;;;6256224;22;20779;-88
2021/05/13 02:53:12;;;;;;;7.37;6.33;;;9.90;99.90;;;;;;6254739;22;20166;-91
2021/05/13 02:55:37;;;;;;;6.43;5.80;;;9.90;99.90;;;;;;6257968;22;20769;-91
2021/05/13 02:58:04;;;;;;;7.73;6.30;;;9.80;99.90;;;;;;6257415;22;20603;-90
2021/05/13 03:00:50;;;;;;;8.07;7.30;;;9.80;99.90;;;;;;6256596;22;20186;-91
2021/05/13 03:03:16;;;;;;;6.90;6.30;;;9.80;99.90;;;;;;6255987;22;20877;-91
2021/05/13 03:05:41;;;;;;;7.23;6.63;;;9.80;99.90;;;;;;6256557;22;20993;-91
2021/05/13 03:08:09;;;;;;;6.80;6.00;;;9.80;99.90;;;;;;6255601;22;20240;-90
2021/05/13 03:10:44;;;;;;;7.57;6.30;;;9.90;99.90;;;;;;6255699;22;20174;-90
2021/05/13 03:13:15;;;;;;;6.93;6.33;;;9.80;99.90;;;;;;6256725;22;20396;-90
2021/05/13 03:15:41;;;;;;;6.80;5.93;;;9.90;99.90;;;;;;6256075;22;20499;-89
2021/05/13 03:18:07;;;;;;;5.80;5.33;;;9.80;99.90;;;;;;6257755;22;20471;-88
2021/05/13 03:20:37;;;;;;;7.53;6.10;;;9.80;99.90;;;;;;6256657;22;20196;-88
2021/05/13 03:23:05;;;;;;;7.00;6.30;;;9.80;99.90;;;;;;6257595;22;20499;-89
2021/05/13 03:25:34;;;;;;;9.10;7.10;;;9.80;99.90;;;;;;6255884;22;20466;-89
2021/05/13 03:28:09;;;;;;;6.77;6.17;;;9.80;99.90;;;;;;6257592;22;20507;-89
2021/05/13 03:30:35;;;;;;;7.73;7.03;;;9.70;99.90;;;;;;6256322;22;20572;-89
2021/05/13 03:33:01;;;;;;;7.40;6.50;;;9.60;99.90;;;;;;6256633;22;20411;-89
2021/05/13 03:35:31;;;;;;;8.87;7.03;;;9.60;99.90;;;;;;6257201;22;20201;-89
2021/05/13 03:37:57;;;;;;;7.20;6.50;;;9.70;99.90;;;;;;6255301;22;20173;-89
2021/05/13 03:40:23;;;;;;;8.77;6.20;;;9.70;99.90;;;;;;6258047;22;20428;-89
2021/05/13 03:42:49;;;;;;;7.80;7.00;;;9.70;99.90;;;;;;6256972;22;20396;-89
2021/05/13 03:45:14;;;;;;;11.13;6.80;;;9.70;99.90;;;;;;6257035;22;20418;-89
2021/05/13 03:47:40;;;;;;;9.13;6.60;;;9.70;99.90;;;;;;6256019;22;20236;-89
2021/05/13 03:50:06;;;;;;;9.27;6.67;;;9.70;99.90;;;;;;6255543;22;20725;-89
2021/05/13 03:52:32;;;;;;;9.03;6.70;;;9.70;99.90;;;;;;6255436;22;20173;-89
2021/05/13 03:54:58;;;;;;;6.87;6.20;;;9.70;99.90;;;;;;6255653;22;20397;-88
2021/05/13 03:57:24;;;;;;;10.80;6.97;;;9.70;99.90;;;;;;6256950;22;20166;-89
2021/05/13 03:59:52;;;;;;;7.63;6.97;;;9.70;99.90;;;;;;6257454;22;20425;-89
2021/05/13 04:02:31;;;;;;;8.27;6.47;;;9.70;99.90;;;;;;6256891;22;20492;-92
2021/05/13 04:04:57;;;;;;;7.57;6.47;;;9.70;99.90;;;;;;6256675;22;20846;-91
2021/05/13 04:07:23;;;;;;;7.13;6.30;;;9.70;99.90;;;;;;6255673;22;20409;-89
2021/05/13 04:09:49;;;;;;;7.63;6.93;;;9.70;99.90;;;;;;6256871;22;20169;-89
2021/05/13 04:12:14;;;;;;;6.30;5.80;;;9.70;99.90;;;;;;6253737;22;20445;-89
2021/05/13 04:14:40;;;;;;;6.70;6.10;;;9.70;99.90;;;;;;6252715;22;20162;-89
2021/05/13 04:17:07;;;;;;;7.57;5.70;;;9.70;99.90;;;;;;6256076;22;20499;-89
2021/05/13 04:19:33;;;;;;;7.10;6.40;;;9.70;99.90;;;;;;6253959;22;20162;-89
2021/05/13 04:21:58;;;;;;;8.23;7.00;;;9.80;99.90;;;;;;6255806;22;20401;-89
2021/05/13 04:24:24;;;;;;;7.77;6.07;;;9.80;99.90;;;;;;6255765;22;20907;-89
2021/05/13 04:26:50;;;;;;;7.17;6.47;;;9.90;99.90;;;;;;6254242;22;20518;-89
2021/05/13 04:29:15;;;;;;;7.53;6.77;;;9.90;99.90;;;;;;6254750;22;20693;-90
2021/05/13 04:31:41;;;;;;;8.60;6.40;;;9.90;99.90;;;;;;6254512;22;20173;-92
2021/05/13 04:34:07;;;;;;;7.83;6.80;;;10.00;99.90;;;;;;6230333;22;20225;-88
2021/05/13 04:36:33;;;;;;;6.53;5.93;;;10.00;99.90;;;;;;6255484;22;20399;-89
2021/05/13 04:38:59;;;;;;;7.40;6.73;;;10.10;99.90;;;;;;6255769;22;20219;-91
2021/05/13 04:41:28;;;;;;;6.57;5.33;;;10.20;99.90;;;;;;6256756;22;20200;-91
2021/05/13 04:43:53;;;;;;;7.13;6.20;;;10.20;99.90;;;;;;6254780;22;20407;-90
2021/05/13 04:46:22;;;;;;;6.63;5.40;;;10.20;99.90;;;;;;6256940;22;20491;-90
2021/05/13 04:51:17;;;;;;;7.33;5.97;;;10.20;99.90;;;;;;6258232;22;20439;-91
2021/05/13 04:53:46;;;;;;;6.63;6.13;;;10.20;99.90;;;;;;6255783;22;20500;-92
2021/05/13 04:56:12;;;;;;;7.20;6.53;;;10.10;99.90;;;;;;6229736;22;20746;-91
2021/05/13 04:58:37;;;;;;;6.37;5.77;;;10.20;99.90;;;;;;6257684;22;20454;-93
2021/05/13 05:01:03;;;;;;;6.10;5.60;;;10.20;99.90;;;;;;6256699;22;20258;-94
2021/05/13 05:03:29;;;;;;;6.33;5.83;;;10.10;99.90;;;;;;6257197;22;20645;-91
2021/05/13 05:05:54;;;;;;;6.70;5.60;;;10.10;99.90;;;;;;6258483;22;20162;-94
2021/05/13 05:08:20;;;;;;;5.80;5.30;;;10.10;99.90;;;;;;6257590;22;20640;-94
2021/05/13 05:10:46;;;;;;;6.33;5.73;;;10.20;99.90;;;;;;6257532;22;20170;-95
2021/05/13 05:13:12;;;;;;;6.00;5.40;;;10.20;99.90;;;;;;6257258;22;20173;-94
2021/05/13 05:15:38;;;;;;;6.27;5.20;;;10.20;99.90;;;;;;6256417;22;20166;-93
2021/05/13 05:18:04;;;;;;;6.17;5.67;;;10.20;99.90;;;;;;6258471;22;20174;-93
2021/05/13 05:20:29;;;;;;;8.83;5.40;;;10.20;99.90;;;;;;6258398;22;21294;-94
2021/05/13 05:22:55;;;;;;;6.63;5.93;;;10.30;99.90;;;;;;6258408;22;20397;-93
2021/05/13 05:25:21;;;;;;;6.53;5.80;;;10.30;99.90;;;;;;6258630;22;20150;-91
2021/05/13 05:27:46;;;;;;;6.20;5.60;;;10.30;99.90;;;;;;6256551;22;20197;-91
2021/05/13 05:30:13;;;;;;;5.47;5.07;;;10.40;99.90;;;;;;6258754;22;20225;-91
2021/05/13 05:32:38;;;;;;;6.30;5.77;;;10.60;99.90;;;;;;6257216;22;20552;-88
2021/05/13 05:35:05;;;;;;;7.30;6.70;;;10.70;99.90;;;;;;6257337;22;20500;-89
2021/05/13 05:37:32;;;;;;;6.43;5.90;;;10.70;99.90;;;;;;6258836;22;20162;-93
2021/05/13 05:39:57;;;;;;;7.47;6.17;;;10.80;99.90;;;;;;6258665;22;20435;-91
2021/05/13 05:42:23;;;;;;;6.50;5.90;;;10.80;99.90;;;;;;6257157;22;20519;-91
2021/05/13 05:44:49;;;;;;;6.53;5.93;;;10.80;99.90;;;;;;6257280;22;20549;-90
2021/05/13 05:47:16;;;;;;;6.87;6.17;;;10.80;99.90;;;;;;6257499;22;20621;-91
2021/05/13 05:49:42;;;;;;;6.30;5.80;;;10.90;99.90;;;;;;6257134;22;20190;-92
2021/05/13 05:52:08;;;;;;;7.90;6.20;;;11.00;99.90;;;;;;6256005;22;20443;-93
2021/05/13 05:54:34;;;;;;;6.33;5.73;;;11.00;99.90;;;;;;6253973;22;20876;-91
2021/05/13 05:57:00;;;;;;;6.40;5.80;;;11.10;99.90;;;;;;6257050;22;20174;-92
2021/05/13 05:59:26;;;;;;;6.83;6.23;;;11.20;99.90;;;;;;6257567;22;20162;-91
2021/05/13 06:01:51;;;;;;;7.20;6.50;;;11.20;99.90;;;;;;6257219;22;20466;-90
2021/05/13 06:04:17;;;;;;;6.13;5.53;;;11.30;99.90;;;;;;6257084;22;21199;-91
2021/05/13 06:06:43;;;;;;;10.50;5.97;;;11.20;99.90;;;;;;6256361;22;20516;-92
2021/05/13 06:09:10;;;;;;;6.70;6.10;;;11.30;99.90;;;;;;6258264;22;20162;-91
2021/05/13 06:11:36;;;;;;;6.40;5.77;;;11.30;99.90;;;;;;6258730;22;20178;-91
2021/05/13 06:14:02;;;;;;;5.87;5.40;;;11.40;99.90;;;;;;6257228;22;20513;-91
2021/05/13 06:16:28;;;;;;;8.27;5.43;;;11.50;99.90;;;;;;6254804;22;20427;-92
2021/05/13 06:18:56;;;;;;;4.87;4.47;;;11.50;99.90;;;;;;6258074;22;20414;-93
2021/05/13 06:21:22;;;;;;;4.87;4.47;;;11.40;99.90;;;;;;6256688;22;20440;-92
2021/05/13 06:23:50;;;;;;;5.53;5.03;;;11.50;99.90;;;;;;6256514;22;20710;-91
2021/05/13 06:26:35;;;;;;;5.97;5.30;;;11.50;99.90;;;;;;6256780;22;20401;-91
2021/05/13 06:29:05;;;;;;;4.87;4.47;;;11.50;99.90;;;;;;6257804;22;20396;-91
2021/05/13 06:31:31;;;;;;;5.73;5.03;;;11.60;99.90;;;;;;6256434;22;21284;-93
2021/05/13 06:33:57;;;;;;;5.17;4.77;;;11.50;99.90;;;;;;6257291;22;20396;-90
2021/05/13 06:36:23;;;;;;;5.40;4.90;;;11.60;99.90;;;;;;6256822;22;20389;-93
2021/05/13 06:38:48;;;;;;;7.00;4.20;;;11.80;99.90;;;;;;6256333;22;20773;-93
2021/05/13 06:41:15;;;;;;;4.43;4.13;;;12.10;99.90;;;;;;6257538;22;20198;-91
2021/05/13 06:43:40;;;;;;;7.87;4.80;;;12.20;99.90;;;;;;6257810;22;20791;-90
2021/05/13 06:46:06;;;;;;;5.27;4.73;;;12.30;99.90;;;;;;6254283;22;20786;-91
2021/05/13 06:48:35;;;;;;;4.70;4.30;;;12.40;99.90;;;;;;6255880;22;20548;-89
2021/05/13 06:51:02;;;;;;;4.83;4.43;;;12.50;99.90;;;;;;6257297;22;20173;-89
2021/05/13 06:53:28;;;;;;;5.67;4.60;;;12.60;99.90;;;;;;6256802;22;20735;-88
2021/05/13 06:55:54;;;;;;;5.60;4.57;;;12.80;99.90;;;;;;6257176;22;20935;-92
2021/05/13 06:58:22;;;;;;;4.30;3.90;;;12.80;99.90;;;;;;6255884;22;20397;-91
2021/05/13 07:00:49;;;;;;;4.63;3.60;;;12.70;99.90;;;;;;6257489;22;21358;-91
2021/05/13 07:03:16;;;;;;;3.70;3.40;;;12.80;99.90;;;;;;6257829;22;20450;-91
2021/05/13 07:05:43;;;;;;;4.60;3.60;;;12.90;99.90;;;;;;6257778;22;20404;-91
2021/05/13 07:08:09;;;;;;;5.53;4.17;;;12.90;99.90;;;;;;6257247;22;21029;-91
2021/05/13 07:10:36;;;;;;;4.77;4.13;;;12.80;99.90;;;;;;6257228;22;20470;-91
2021/05/13 07:13:02;;;;;;;4.90;4.30;;;13.00;99.90;;;;;;6254126;22;20392;-89
2021/05/13 07:15:28;;;;;;;3.83;3.63;;;13.10;99.90;;;;;;6254930;22;20401;-90
2021/05/13 07:17:53;;;;;;;4.33;3.97;;;12.90;99.90;;;;;;6256967;22;20423;-89
2021/05/13 07:20:21;;;;;;;4.20;3.80;;;12.80;99.90;;;;;;6256016;22;20612;-90
2021/05/13 07:22:47;;;;;;;4.13;3.73;;;12.90;99.90;;;;;;6256843;22;20232;-90
2021/05/13 07:25:12;;;;;;;4.03;3.73;;;13.10;99.90;;;;;;6257374;22;20424;-91
2021/05/13 07:27:38;;;;;;;4.60;4.20;;;13.30;99.90;;;;;;6259648;22;20700;-92
2021/05/13 07:30:04;;;;;;;4.60;4.20;;;13.40;99.90;;;;;;6257632;22;20224;-92
2021/05/13 07:32:30;;;;;;;5.63;3.77;;;13.50;99.90;;;;;;6257505;22;20169;-90
2021/05/13 07:34:56;;;;;;;4.80;4.00;;;13.70;99.90;;;;;;6255728;22;20903;-90
2021/05/13 07:37:22;;;;;;;4.63;3.97;;;13.90;99.90;;;;;;6255623;22;20549;-89
2021/05/13 07:39:48;;;;;;;8.23;4.33;;;13.90;99.90;;;;;;6255943;22;20459;-90
2021/05/13 07:42:14;;;;;;;7.50;3.53;;;13.90;99.90;;;;;;6258212;22;20405;-89
2021/05/13 07:44:40;;;;;;;4.43;4.13;;;14.00;99.90;;;;;;6256894;22;20154;-89
2021/05/13 07:47:05;;;;;;;4.60;4.20;;;14.10;99.90;;;;;;6258239;22;20182;-89
2021/05/13 07:49:34;;;;;;;5.60;5.10;;;14.10;99.90;;;;;;6255360;22;20193;-89
2021/05/13 07:52:00;;;;;;;4.23;3.93;;;14.20;99.90;;;;;;6255434;22;20209;-89
2021/05/13 07:54:25;;;;;;;4.60;4.10;;;14.40;99.90;;;;;;6257756;22;20398;-89
2021/05/13 07:56:51;;;;;;;4.43;4.03;;;14.50;99.90;;;;;;6255818;22;20930;-92
2021/05/13 07:59:17;;;;;;;4.37;4.07;;;14.50;99.90;;;;;;6256542;22;20227;-91
2021/05/13 08:01:43;;;;;;;4.30;3.90;;;14.50;99.90;;;;;;6257082;22;20203;-91
2021/05/13 08:04:08;;;;;;;4.10;3.80;;;14.50;99.90;;;;;;6254649;22;20162;-90
2021/05/13 08:06:34;;;;;;;6.87;4.27;;;14.60;99.90;;;;;;6255784;22;20533;-90
2021/05/13 08:09:00;;;;;;;4.97;4.57;;;14.60;99.90;;;;;;6256679;22;20926;-90
2021/05/13 08:11:25;;;;;;;5.03;4.10;;;14.60;99.90;;;;;;6256452;22;20177;-92
2021/05/13 08:13:51;;;;;;;4.53;4.10;;;14.70;99.90;;;;;;6256444;22;20907;-90
2021/05/13 08:16:16;;;;;;;4.23;3.70;;;14.70;99.90;;;;;;6257075;22;20550;-91
2021/05/13 08:18:42;;;;;;;4.07;3.67;;;14.70;99.90;;;;;;6256088;22;20688;-89
2021/05/13 08:21:08;;;;;;;4.20;3.90;;;14.90;99.90;;;;;;6255414;22;20253;-90
2021/05/13 08:23:33;;;;;;;4.40;4.00;;;14.80;99.90;;;;;;6254763;22;20214;-89
2021/05/13 08:25:59;;;;;;;3.70;3.40;;;14.70;99.90;;;;;;6254837;22;20170;-91
2021/05/13 08:28:25;;;;;;;3.73;3.20;;;14.90;99.90;;;;;;6256213;22;20795;-89
2021/05/13 08:30:51;;;;;;;5.43;3.60;;;15.10;99.90;;;;;;6254858;22;20192;-89
2021/05/13 08:33:16;;;;;;;6.30;2.37;;;15.30;99.90;;;;;;6256515;22;20190;-89
2021/05/13 08:35:42;;;;;;;2.60;2.40;;;15.80;99.90;;;;;;6255259;22;20162;-90
2021/05/13 08:38:08;;;;;;;2.80;2.37;;;16.30;99.90;;;;;;6256641;22;20163;-88
2021/05/13 08:40:34;;;;;;;2.60;2.20;;;16.60;99.90;;;;;;6257862;22;20190;-89
2021/05/13 08:42:59;;;;;;;2.13;1.97;;;16.30;98.40;;;;;;6256667;22;20219;-90
2021/05/13 08:45:26;;;;;;;2.07;1.83;;;15.90;98.10;;;;;;6256788;22;20392;-90
2021/05/13 08:47:53;;;;;;;1.77;1.63;;;15.90;98.80;;;;;;6256438;22;20576;-91
2021/05/13 08:50:20;;;;;;;3.07;1.30;;;16.10;97.90;;;;;;6257710;22;20397;-90
2021/05/13 08:52:46;;;;;;;2.90;1.83;;;16.20;95.60;;;;;;6256010;22;20906;-90
2021/05/13 08:55:12;;;;;;;2.70;2.07;;;16.10;97.50;;;;;;6257489;22;20487;-90
2021/05/13 08:57:38;;;;;;;2.33;1.60;;;16.00;96.60;;;;;;6258617;22;20744;-92
2021/05/13 09:00:06;;;;;;;1.60;1.50;;;16.10;96.00;;;;;;6256646;22;20760;-91
2021/05/13 09:02:33;;;;;;;1.60;1.50;;;16.10;94.10;;;;;;6255925;22;20174;-88
2021/05/13 09:05:00;;;;;;;1.60;1.50;;;16.20;94.60;;;;;;6256573;22;20439;-88
2021/05/13 09:07:31;;;;;;;1.83;1.10;;;16.50;94.70;;;;;;6256590;22;20416;-88
2021/05/13 09:10:00;;;;;;;3.70;1.20;;;17.20;94.20;;;;;;6255212;22;20747;-89
2021/05/13 09:12:37;;;;;;;2.43;1.50;;;17.60;91.70;;;;;;6255238;22;20376;-90
2021/05/13 09:15:14;;;;;;;2.57;1.60;;;17.80;91.60;;;;;;6256363;22;20487;-89
2021/05/13 09:17:47;;;;;;;1.53;1.40;;;18.00;92.20;;;;;;6256535;22;20480;-89
2021/05/13 09:20:25;;;;;;;3.10;2.00;;;18.50;93.90;;;;;;6255467;22;20428;-88
2021/05/13 09:22:51;;;;;;;2.27;2.07;;;17.90;94.00;;;;;;6256136;22;20426;-88
2021/05/13 09:25:17;;;;;;;2.07;1.90;;;17.80;93.10;;;;;;6256063;22;20393;-90
2021/05/13 09:27:53;;;;;;;2.53;2.37;;;16.90;93.60;;;;;;6260171;22;20443;-95
2021/05/13 09:30:21;;;;;;;2.97;2.10;;;16.60;95.70;;;;;;6257930;22;20272;-94
2021/05/13 09:32:51;;;;;;;3.03;2.30;;;16.60;96.40;;;;;;6258668;22;20489;-92
2021/05/13 09:35:31;;;;;;;2.70;1.80;;;16.80;96.50;;;;;;6260532;22;21145;-95
2021/05/13 09:40:34;;;;;;;3.13;1.97;;;17.30;94.90;;;;;;6201213;23;20541;-96
2021/05/13 09:43:21;;;;;;;2.73;2.53;;;17.60;96.90;;;;;;6176986;23;20406;-94
2021/05/13 09:46:06;;;;;;;2.57;1.87;;;17.60;96.70;;;;;;6173596;23;20430;-96
2021/05/13 09:48:58;;;;;;;2.53;2.33;;;17.50;96.10;;;;;;6184453;23;20406;-96
2021/05/13 09:51:35;;;;;;;2.90;2.60;;;17.50;96.00;;;;;;6176902;23;20399;-96
2021/05/13 09:57:45;;;;;;;2.60;2.40;;;18.70;93.40;;;;;;6195659;23;20798;-90
2021/05/13 10:00:11;;;;;;;3.10;2.00;;;18.60;92.80;;;;;;6174320;23;20839;-91
2021/05/13 10:02:51;;;;;;;2.90;1.90;;;19.10;94.40;;;;;;6173067;23;20407;-91
2021/05/13 10:05:38;;;;;;;2.53;2.33;;;19.60;92.60;;;;;;6164943;23;20421;-90
2021/05/13 10:08:19;;;;;;;4.77;2.47;;;19.50;93.20;;;;;;6195464;23;20400;-91
2021/05/13 10:10:47;;;;;;;2.40;2.20;;;19.30;90.40;;;;;;6170016;23;20391;-90
2021/05/13 10:13:34;;;;;;;1.97;1.87;;;17.60;92.40;;;;;;6154878;23;20379;-89
2021/05/13 10:16:04;;;;;;;4.97;2.03;;;17.60;92.20;;;;;;6170452;23;20462;-89
2021/05/13 10:18:40;;;;;;;2.43;2.23;;;17.70;92.50;;;;;;6170470;23;20505;-91
2021/05/13 10:21:29;;;;;;;2.20;2.00;;;17.80;93.60;;;;;;6170129;23;20453;-91
2021/05/13 10:24:06;;;;;;;1.80;1.70;;;17.60;94.40;;;;;;6195721;23;20423;-90
2021/05/13 10:26:35;;;;;;;2.70;1.67;;;17.30;92.20;;;;;;6170437;23;20401;-90
2021/05/13 10:29:25;;;;;;;2.13;1.97;;;16.80;92.20;;;;;;6168882;23;20399;-90
2021/05/13 10:32:19;;;;;;;2.00;1.80;;;16.50;93.60;;;;;;6168289;23;20769;-96
2021/05/13 10:34:57;;;;;;;2.47;1.87;;;16.30;94.20;;;;;;6169921;23;20486;-93
2021/05/13 10:37:40;;;;;;;2.30;2.07;;;16.20;94.80;;;;;;6170845;23;20505;-89
2021/05/13 10:40:15;;;;;;;4.67;2.70;;;16.00;95.90;;;;;;6186961;23;20497;-90
2021/05/13 10:42:43;;;;;;;2.90;2.33;;;16.10;96.60;;;;;;6194190;23;20433;-89
2021/05/13 10:45:24;;;;;;;2.60;2.40;;;16.10;97.00;;;;;;6192727;23;20560;-89
2021/05/13 10:48:37;;;;;;;3.53;2.90;;;15.90;97.10;;;;;;6192508;23;20794;-90
2021/05/13 10:51:07;;;;;;;2.80;2.53;;;15.80;97.50;;;;;;6194218;23;20778;-90
2021/05/13 10:53:39;;;;;;;2.77;2.57;;;15.60;98.50;;;;;;6194676;23;20844;-90
2021/05/13 10:56:29;;;;;;;3.13;2.33;;;15.50;99.40;;;;;;6194810;23;20482;-88
2021/05/13 10:59:04;;;;;;;3.13;2.07;;;15.50;98.30;;;;;;6195707;23;20745;-93
2021/05/13 11:01:48;;;;;;;2.60;2.27;;;15.30;98.90;;;;;;6193660;23;20473;-92
2021/05/13 11:04:20;;;;;;;2.77;2.47;;;15.50;99.70;;;;;;6194400;23;20456;-91
2021/05/13 11:06:56;;;;;;;2.23;2.10;;;15.50;99.90;;;;;;6194365;23;20438;-92
2021/05/13 11:09:41;;;;;;;3.67;2.20;;;15.60;99.90;;;;;;6196724;23;20482;-91
2021/05/13 11:12:21;;;;;;;2.53;2.33;;;15.90;99.60;;;;;;6194559;23;20430;-90
2021/05/13 11:15:03;;;;;;;3.53;2.73;;;16.00;99.50;;;;;;6193981;23;20509;-91
2021/05/13 11:20:44;;;;;;;2.63;2.53;;;16.10;98.90;;;;;;6196648;23;20466;-90
2021/05/13 11:23:22;;;;;;;1.50;1.40;;;15.90;99.30;;;;;;6194291;23;20806;-89
2021/05/13 11:26:02;;;;;;;2.20;1.43;;;15.60;99.40;;;;;;6194538;23;20796;-90
2021/05/13 11:28:56;;;;;;;1.70;1.60;;;15.40;99.90;;;;;;6194268;23;20905;-89
2021/05/13 11:31:22;;;;;;;3.03;1.47;;;15.50;99.90;;;;;;6187618;23;20822;-91
2021/05/13 11:33:53;;;;;;;2.10;1.40;;;15.60;99.60;;;;;;6193304;23;20473;-89
2021/05/13 11:36:28;;;;;;;1.30;1.20;;;15.70;99.40;;;;;;6195254;23;20282;-89
2021/05/13 11:38:55;;;;;;;2.03;1.33;;;15.70;98.60;;;;;;6194737;23;20437;-89
2021/05/13 11:41:22;;;;;;;3.10;1.40;;;15.90;98.90;;;;;;6194836;23;20579;-89
2021/05/13 11:43:48;;;;;;;1.83;1.10;;;16.10;98.50;;;;;;6196203;23;20785;-89
2021/05/13 11:46:22;;;;;;;1.33;1.10;;;16.00;98.30;;;;;;6193712;23;20709;-88
2021/05/13 11:48:49;;;;;;;1.50;1.20;;;16.20;96.90;;;;;;6193387;23;20398;-91
2021/05/13 11:51:16;;;;;;;2.10;1.20;;;16.10;95.40;;;;;;6192746;23;20406;-89
2021/05/13 11:53:43;;;;;;;1.20;1.10;;;16.00;96.10;;;;;;6192368;23;20395;-89
2021/05/13 11:56:13;;;;;;;3.43;1.10;;;16.10;95.90;;;;;;6192844;23;20788;-89
2021/05/13 11:58:47;;;;;;;1.30;1.20;;;16.20;95.10;;;;;;6195496;23;20789;-90
2021/05/13 12:01:31;;;;;;;1.20;1.10;;;16.30;94.40;;;;;;6192860;23;20450;-90
2021/05/13 12:04:12;;;;;;;1.50;1.37;;;16.50;93.70;;;;;;6193240;23;20434;-88
2021/05/13 12:06:47;;;;;;;1.20;1.00;;;16.50;92.80;;;;;;6190589;23;20403;-89
2021/05/13 12:09:15;;;;;;;1.27;0.80;;;16.70;92.10;;;;;;6190380;23;20697;-90
2021/05/13 12:11:41;;;;;;;0.60;0.60;;;16.90;92.30;;;;;;6192110;23;20403;-88
2021/05/13 12:14:12;;;;;;;2.33;0.90;;;16.70;91.40;;;;;;6193882;23;20877;-88
2021/05/13 12:16:42;;;;;;;1.07;1.07;;;16.50;92.60;;;;;;6193825;23;20409;-89
2021/05/13 12:19:10;;;;;;;1.00;1.00;;;15.90;93.90;;;;;;6192482;23;20422;-89
2021/05/13 12:21:41;;;;;;;1.03;0.80;;;15.70;94.70;;;;;;6193070;23;20442;-89
2021/05/13 12:24:10;;;;;;;1.03;0.70;;;15.60;94.90;;;;;;6193351;23;20399;-90
2021/05/13 12:26:40;;;;;;;1.10;0.90;;;15.60;94.60;;;;;;6196825;23;20944;-88
2021/05/13 12:29:14;;;;;;;1.27;0.80;;;15.50;94.30;;;;;;6193745;23;20398;-89
2021/05/13 12:31:47;;;;;;;0.83;0.77;;;15.60;93.90;;;;;;6193480;23;20711;-91
2021/05/13 12:34:46;;;;;;;0.87;0.80;;;15.60;92.90;;;;;;6192090;23;20760;-89
2021/05/13 12:37:22;;;;;;;3.70;3.10;;;15.80;93.40;;;;;;6192488;23;20873;-89
2021/05/13 12:39:49;;;;;;;4.27;2.90;;;15.70;93.20;;;;;;6193272;23;20421;-90
2021/05/13 12:42:37;;;;;;;1.83;1.70;;;15.70;93.40;;;;;;6193631;23;20563;-89
2021/05/13 12:45:24;;;;;;;1.23;1.13;;;15.90;94.10;;;;;;6194196;23;20609;-89
2021/05/13 12:48:06;;;;;;;1.40;1.30;;;16.10;92.40;;;;;;6192699;23;20394;-90
2021/05/13 12:50:32;;;;;;;2.00;1.10;;;16.00;90.50;;;;;;6170117;23;20403;-89
2021/05/13 12:53:17;;;;;;;0.90;0.90;;;16.20;91.40;;;;;;6193829;23;20399;-95
2021/05/13 12:55:58;;;;;;;0.90;0.90;;;16.40;90.20;;;;;;6197181;23;20394;-91
2021/05/13 12:58:28;;;;;;;3.60;0.80;;;16.80;89.20;;;;;;6193913;23;20482;-89
2021/05/13 13:01:16;;;;;;;0.57;0.50;;;16.90;89.90;;;;;;6193927;23;20447;-89
2021/05/13 13:03:50;;;;;;;1.63;0.63;;;16.90;90.40;;;;;;6195873;23;20758;-90
2021/05/13 13:06:17;;;;;;;0.97;0.63;;;17.10;90.70;;;;;;6196261;23;20498;-89
2021/05/13 13:08:46;;;;;;;1.13;1.03;;;17.90;91.70;;;;;;6193907;23;20417;-90
2021/05/13 13:11:12;;;;;;;0.87;0.80;;;18.00;83.20;;;;;;6193814;23;20816;-90